createdAt,value
2018-01-04T00:00:22.753Z,0
2018-01-04T00:01:20.901Z,0
2018-01-04T00:02:21.205Z,0
2018-01-04T00:03:21.380Z,0
2018-01-04T00:04:21.120Z,0
2018-01-04T00:05:21.301Z,0
2018-01-04T00:06:21.129Z,0
2018-01-04T00:07:21.355Z,0
2018-01-04T00:08:21.372Z,0
2018-01-04T00:09:21.383Z,0
2018-01-04T00:10:22.513Z,0
2018-01-04T00:11:21.321Z,0
2018-01-04T00:12:20.839Z,0
2018-01-04T00:13:20.842Z,0
2018-01-04T00:14:21.355Z,0
2018-01-04T00:15:21.986Z,0
2018-01-04T00:16:20.788Z,0
2018-01-04T00:17:21.301Z,0
2018-01-04T00:18:21.288Z,0
2018-01-04T00:19:21.166Z,0
2018-01-04T00:20:21.361Z,0
2018-01-04T00:21:20.740Z,0
2018-01-04T00:22:20.978Z,0
2018-01-04T00:23:21.027Z,0
2018-01-04T00:24:20.970Z,0
2018-01-04T00:25:22.169Z,0
2018-01-04T00:26:21.255Z,0
2018-01-04T00:27:21.213Z,0
2018-01-04T00:28:20.717Z,0
2018-01-04T00:29:21.195Z,0
2018-01-04T00:30:22.396Z,0
2018-01-04T00:31:20.938Z,0
2018-01-04T00:32:20.911Z,0
2018-01-04T00:33:20.663Z,0
2018-01-04T00:34:20.629Z,0
2018-01-04T00:35:21.901Z,0
2018-01-04T00:36:20.879Z,0
2018-01-04T00:37:20.884Z,0
2018-01-04T00:38:20.895Z,0
2018-01-04T00:39:21.103Z,0
2018-01-04T00:40:22.087Z,0
2018-01-04T00:41:20.578Z,0
2018-01-04T00:42:21.078Z,0
2018-01-04T00:43:20.823Z,0
2018-01-04T00:44:21.076Z,0
2018-01-04T00:45:22.107Z,0
2018-01-04T00:46:20.312Z,0
2018-01-04T00:47:20.792Z,0
2018-01-04T00:48:20.790Z,0
2018-01-04T00:49:20.786Z,0
2018-01-04T00:50:22.551Z,0
2018-01-04T00:51:20.775Z,0
2018-01-04T00:52:20.507Z,0
2018-01-04T00:53:20.510Z,0
2018-01-04T00:54:20.757Z,0
2018-01-04T00:55:22.097Z,0
2018-01-04T00:56:20.734Z,0
2018-01-04T00:57:20.733Z,0
2018-01-04T00:58:20.733Z,0
2018-01-04T00:59:20.248Z,0
2018-01-04T01:00:22.127Z,0
2018-01-04T01:01:20.706Z,0
2018-01-04T01:02:20.956Z,0
2018-01-04T01:03:20.701Z,0
2018-01-04T01:04:20.954Z,0
2018-01-04T01:05:20.830Z,0
2018-01-04T01:06:20.688Z,0
2018-01-04T01:07:20.664Z,0
2018-01-04T01:08:20.908Z,0
2018-01-04T01:09:20.409Z,0
2018-01-04T01:10:21.522Z,0
2018-01-04T01:11:20.894Z,0
2018-01-04T01:12:20.646Z,0
2018-01-04T01:13:20.878Z,0
2018-01-04T01:14:20.124Z,0
2018-01-04T01:15:21.559Z,0
2018-01-04T01:16:20.609Z,0
2018-01-04T01:17:20.097Z,0
2018-01-04T01:18:20.600Z,0
2018-01-04T01:19:20.350Z,0
2018-01-04T01:20:22.375Z,0
2018-01-04T01:21:20.566Z,0
2018-01-04T01:22:19.831Z,0
2018-01-04T01:23:20.071Z,0
2018-01-04T01:24:20.588Z,0
2018-01-04T01:25:21.746Z,0
2018-01-04T01:26:26.173Z,0
2018-01-04T01:27:20.278Z,0
2018-01-04T01:28:20.535Z,0
2018-01-04T01:29:20.769Z,0
2018-01-04T01:30:21.362Z,0
2018-01-04T01:31:20.508Z,0
2018-01-04T01:32:20.809Z,0
2018-01-04T01:33:20.559Z,0
2018-01-04T01:34:20.488Z,0
2018-01-04T01:35:20.961Z,0
2018-01-04T01:36:20.246Z,0
2018-01-04T01:37:20.273Z,0
2018-01-04T01:38:20.461Z,0
2018-01-04T01:39:20.460Z,0
2018-01-04T01:40:22.141Z,0
2018-01-04T01:41:20.188Z,0
2018-01-04T01:42:20.992Z,0
2018-01-04T01:43:20.478Z,0
2018-01-04T01:44:20.677Z,0
2018-01-04T01:45:20.992Z,0
2018-01-04T01:46:20.154Z,0
2018-01-04T01:47:20.769Z,0
2018-01-04T01:48:20.666Z,0
2018-01-04T01:49:20.397Z,0
2018-01-04T01:50:21.776Z,0
2018-01-04T01:51:20.624Z,0
2018-01-04T01:52:20.803Z,0
2018-01-04T01:53:20.359Z,0
2018-01-04T01:54:20.616Z,0
2018-01-04T01:55:21.864Z,0
2018-01-04T01:56:20.426Z,0
2018-01-04T01:57:21.945Z,0
2018-01-04T01:58:20.329Z,0
2018-01-04T01:59:20.319Z,0
2018-01-04T02:00:21.343Z,0
2018-01-04T02:01:20.548Z,0
2018-01-04T02:02:20.547Z,0
2018-01-04T02:03:20.544Z,0
2018-01-04T02:04:20.547Z,0
2018-01-04T02:05:21.062Z,0
2018-01-04T02:06:20.524Z,0
2018-01-04T02:07:20.515Z,0
2018-01-04T02:08:20.257Z,0
2018-01-04T02:09:19.995Z,0
2018-01-04T02:10:21.994Z,0
2018-01-04T02:11:20.245Z,0
2018-01-04T02:12:20.239Z,0
2018-01-04T02:13:20.496Z,0
2018-01-04T02:14:19.958Z,0
2018-01-04T02:15:21.573Z,0
2018-01-04T02:16:20.199Z,0
2018-01-04T02:17:20.448Z,0
2018-01-04T02:18:19.964Z,0
2018-01-04T02:19:20.184Z,0
2018-01-04T02:20:21.833Z,0
2018-01-04T02:21:20.408Z,0
2018-01-04T02:22:20.628Z,0
2018-01-04T02:23:20.414Z,0
2018-01-04T02:24:20.390Z,0
2018-01-04T02:25:21.366Z,0
2018-01-04T02:26:20.122Z,0
2018-01-04T02:27:20.133Z,0
2018-01-04T02:28:20.197Z,0
2018-01-04T02:29:20.362Z,0
2018-01-04T02:30:21.479Z,0
2018-01-04T02:31:20.386Z,0
2018-01-04T02:32:20.338Z,0
2018-01-04T02:33:19.828Z,0
2018-01-04T02:34:20.454Z,0
2018-01-04T02:35:21.407Z,0
2018-01-04T02:36:19.815Z,0
2018-01-04T02:37:20.070Z,0
2018-01-04T02:38:19.805Z,0
2018-01-04T02:39:20.295Z,0
2018-01-04T02:40:21.585Z,0
2018-01-04T02:41:20.031Z,0
2018-01-04T02:42:19.781Z,0
2018-01-04T02:43:19.776Z,0
2018-01-04T02:44:20.005Z,0
2018-01-04T02:45:21.479Z,0
2018-01-04T02:46:20.008Z,0
2018-01-04T02:47:20.241Z,0
2018-01-04T02:48:20.229Z,0
2018-01-04T02:49:19.722Z,0
2018-01-04T02:50:21.418Z,0
2018-01-04T02:51:19.994Z,0
2018-01-04T02:52:19.792Z,0
2018-01-04T02:53:19.697Z,0
2018-01-04T02:54:19.947Z,0
2018-01-04T02:55:21.598Z,0
2018-01-04T02:56:20.005Z,0
2018-01-04T02:57:19.920Z,0
2018-01-04T02:58:19.920Z,0
2018-01-04T02:59:20.209Z,0
2018-01-04T03:00:21.406Z,0
2018-01-04T03:01:19.145Z,0
2018-01-04T03:02:19.893Z,0
2018-01-04T03:03:19.889Z,0
2018-01-04T03:04:19.376Z,0
2018-01-04T03:05:20.686Z,0
2018-01-04T03:06:19.615Z,0
2018-01-04T03:07:20.104Z,0
2018-01-04T03:08:19.592Z,0
2018-01-04T03:09:20.097Z,0
2018-01-04T03:10:21.022Z,0
2018-01-04T03:11:19.576Z,0
2018-01-04T03:12:19.572Z,0
2018-01-04T03:13:19.825Z,0
2018-01-04T03:14:19.297Z,0
2018-01-04T03:15:20.684Z,0
2018-01-04T03:16:19.295Z,0
2018-01-04T03:17:19.542Z,0
2018-01-04T03:18:19.790Z,0
2018-01-04T03:19:19.794Z,0
2018-01-04T03:20:20.523Z,0
2018-01-04T03:21:19.768Z,0
2018-01-04T03:22:20.006Z,0
2018-01-04T03:23:19.996Z,0
2018-01-04T03:24:19.743Z,0
2018-01-04T03:25:20.298Z,0
2018-01-04T03:26:19.736Z,0
2018-01-04T03:27:19.749Z,0
2018-01-04T03:28:19.815Z,0
2018-01-04T03:29:19.706Z,0
2018-01-04T03:30:20.786Z,0
2018-01-04T03:31:19.705Z,0
2018-01-04T03:32:19.699Z,0
2018-01-04T03:33:19.452Z,0
2018-01-04T03:34:19.691Z,0
2018-01-04T03:35:20.666Z,0
2018-01-04T03:36:19.423Z,0
2018-01-04T03:37:19.913Z,0
2018-01-04T03:38:19.911Z,0
2018-01-04T03:39:19.697Z,0
2018-01-04T03:40:21.603Z,0
2018-01-04T03:41:19.897Z,0
2018-01-04T03:42:19.773Z,0
2018-01-04T03:43:19.877Z,0
2018-01-04T03:44:19.110Z,0
2018-01-04T03:45:20.619Z,0
2018-01-04T03:46:19.603Z,0
2018-01-04T03:47:19.848Z,0
2018-01-04T03:48:19.843Z,0
2018-01-04T03:49:19.345Z,0
2018-01-04T03:50:20.451Z,0
2018-01-04T03:51:19.569Z,0
2018-01-04T03:52:19.558Z,0
2018-01-04T03:53:19.307Z,0
2018-01-04T03:54:19.818Z,0
2018-01-04T03:55:20.746Z,0
2018-01-04T03:56:19.534Z,0
2018-01-04T03:57:19.574Z,0
2018-01-04T03:58:19.527Z,0
2018-01-04T03:59:19.554Z,0
2018-01-04T04:00:21.091Z,0
2018-01-04T04:01:19.494Z,0
2018-01-04T04:02:19.757Z,0
2018-01-04T04:03:19.498Z,0
2018-01-04T04:04:19.483Z,0
2018-01-04T04:05:19.901Z,0
2018-01-04T04:06:19.480Z,0
2018-01-04T04:07:19.488Z,0
2018-01-04T04:08:19.705Z,0
2018-01-04T04:09:19.698Z,0
2018-01-04T04:10:20.316Z,0
2018-01-04T04:11:19.175Z,0
2018-01-04T04:12:19.432Z,0
2018-01-04T04:13:19.436Z,0
2018-01-04T04:14:19.415Z,0
2018-01-04T04:15:21.063Z,0
2018-01-04T04:16:19.646Z,0
2018-01-04T04:17:18.899Z,0
2018-01-04T04:18:19.635Z,0
2018-01-04T04:19:19.381Z,0
2018-01-04T04:20:19.770Z,0
2018-01-04T04:21:19.121Z,0
2018-01-04T04:22:19.121Z,0
2018-01-04T04:23:19.607Z,0
2018-01-04T04:24:19.616Z,0
2018-01-04T04:25:20.909Z,0
2018-01-04T04:26:19.327Z,0
2018-01-04T04:27:19.324Z,0
2018-01-04T04:28:19.318Z,0
2018-01-04T04:29:19.068Z,0
2018-01-04T04:30:20.712Z,0
2018-01-04T04:31:19.049Z,0
2018-01-04T04:32:19.562Z,0
2018-01-04T04:33:19.545Z,0
2018-01-04T04:34:19.554Z,0
2018-01-04T04:35:20.566Z,0
2018-01-04T04:36:19.520Z,0
2018-01-04T04:37:19.529Z,0
2018-01-04T04:38:19.254Z,0
2018-01-04T04:39:19.501Z,0
2018-01-04T04:40:20.171Z,0
2018-01-04T04:41:19.289Z,0
2018-01-04T04:42:19.236Z,0
2018-01-04T04:43:19.217Z,0
2018-01-04T04:44:19.225Z,0
2018-01-04T04:45:20.603Z,0
2018-01-04T04:46:19.204Z,0
2018-01-04T04:47:18.961Z,0
2018-01-04T04:48:19.192Z,0
2018-01-04T04:49:18.931Z,0
2018-01-04T04:50:20.392Z,0
2018-01-04T04:51:19.220Z,0
2018-01-04T04:52:19.166Z,0
2018-01-04T04:53:19.163Z,0
2018-01-04T04:54:19.153Z,0
2018-01-04T04:55:20.118Z,0
2018-01-04T04:56:19.138Z,0
2018-01-04T04:57:19.138Z,0
2018-01-04T04:58:19.382Z,0
2018-01-04T04:59:19.121Z,0
2018-01-04T05:00:20.283Z,0
2018-01-04T05:01:19.424Z,0
2018-01-04T05:02:19.089Z,0
2018-01-04T05:03:19.090Z,0
2018-01-04T05:04:19.089Z,0
2018-01-04T05:05:19.852Z,0
2018-01-04T05:06:18.579Z,0
2018-01-04T05:07:19.357Z,0
2018-01-04T05:08:19.307Z,0
2018-01-04T05:09:19.054Z,0
2018-01-04T05:10:20.608Z,0
2018-01-04T05:11:19.290Z,0
2018-01-04T05:12:19.042Z,0
2018-01-04T05:13:19.088Z,0
2018-01-04T05:14:18.768Z,0
2018-01-04T05:15:20.847Z,0
2018-01-04T05:16:19.251Z,0
2018-01-04T05:17:19.246Z,0
2018-01-04T05:18:18.748Z,0
2018-01-04T05:19:18.746Z,0
2018-01-04T05:20:19.985Z,0
2018-01-04T05:21:19.237Z,0
2018-01-04T05:22:18.962Z,0
2018-01-04T05:23:18.949Z,0
2018-01-04T05:24:19.191Z,0
2018-01-04T05:25:28.601Z,0
2018-01-04T05:26:18.940Z,0
2018-01-04T05:27:18.927Z,0
2018-01-04T05:28:18.404Z,0
2018-01-04T05:29:18.974Z,0
2018-01-04T05:30:20.646Z,0
2018-01-04T05:31:18.893Z,0
2018-01-04T05:32:18.645Z,0
2018-01-04T05:33:18.624Z,0
2018-01-04T05:34:19.158Z,0
2018-01-04T05:35:19.981Z,0
2018-01-04T05:36:18.870Z,0
2018-01-04T05:37:18.865Z,0
2018-01-04T05:38:18.599Z,0
2018-01-04T05:39:19.091Z,0
2018-01-04T05:40:20.301Z,0
2018-01-04T05:41:18.571Z,0
2018-01-04T05:42:18.568Z,0
2018-01-04T05:43:18.810Z,0
2018-01-04T05:44:19.069Z,0
2018-01-04T05:45:19.906Z,0
2018-01-04T05:46:19.053Z,0
2018-01-04T05:47:18.547Z,0
2018-01-04T05:48:18.529Z,0
2018-01-04T05:49:18.782Z,0
2018-01-04T05:50:20.254Z,0
2018-01-04T05:51:18.768Z,0
2018-01-04T05:52:19.021Z,0
2018-01-04T05:53:19.021Z,0
2018-01-04T05:54:18.742Z,0
2018-01-04T05:55:20.415Z,0
2018-01-04T05:56:18.488Z,0
2018-01-04T05:57:18.727Z,0
2018-01-04T05:58:18.731Z,0
2018-01-04T05:59:18.729Z,0
2018-01-04T06:00:19.856Z,0
2018-01-04T06:01:18.726Z,0
2018-01-04T06:02:18.438Z,0
2018-01-04T06:03:18.694Z,0
2018-01-04T06:04:18.176Z,0
2018-01-04T06:05:19.190Z,0
2018-01-04T06:06:18.676Z,0
2018-01-04T06:07:18.682Z,0
2018-01-04T06:08:18.641Z,0
2018-01-04T06:09:18.659Z,0
2018-01-04T06:10:19.760Z,0
2018-01-04T06:11:18.643Z,0
2018-01-04T06:12:18.612Z,0
2018-01-04T06:13:18.677Z,0
2018-01-04T06:14:18.864Z,0
2018-01-04T06:15:21.039Z,0
2018-01-04T06:16:18.604Z,0
2018-01-04T06:17:18.863Z,0
2018-01-04T06:18:18.849Z,0
2018-01-04T06:19:18.062Z,0
2018-01-04T06:20:20.836Z,0
2018-01-04T06:21:18.054Z,0
2018-01-04T06:22:18.560Z,0
2018-01-04T06:23:18.557Z,0
2018-01-04T06:24:18.541Z,0
2018-01-04T06:25:20.232Z,0
2018-01-04T06:26:18.527Z,0
2018-01-04T06:27:18.767Z,0
2018-01-04T06:28:18.506Z,0
2018-01-04T06:29:18.518Z,0
2018-01-04T06:30:20.386Z,0
2018-01-04T06:31:18.497Z,0
2018-01-04T06:32:18.498Z,0
2018-01-04T06:33:18.236Z,0
2018-01-04T06:34:18.746Z,0
2018-01-04T06:35:19.683Z,0
2018-01-04T06:36:18.469Z,0
2018-01-04T06:37:18.215Z,0
2018-01-04T06:38:18.452Z,0
2018-01-04T06:39:18.469Z,0
2018-01-04T06:40:19.363Z,0
2018-01-04T06:41:18.215Z,0
2018-01-04T06:42:18.168Z,0
2018-01-04T06:43:18.691Z,0
2018-01-04T06:44:18.411Z,0
2018-01-04T06:45:19.791Z,0
2018-01-04T06:46:18.654Z,0
2018-01-04T06:47:18.667Z,0
2018-01-04T06:48:18.641Z,0
2018-01-04T06:49:18.469Z,0
2018-01-04T06:50:19.690Z,0
2018-01-04T06:51:18.400Z,0
2018-01-04T06:52:17.854Z,0
2018-01-04T06:53:18.109Z,0
2018-01-04T06:54:18.632Z,0
2018-01-04T06:55:20.016Z,0
2018-01-04T06:56:18.338Z,0
2018-01-04T06:57:17.827Z,0
2018-01-04T06:58:18.579Z,0
2018-01-04T06:59:18.337Z,0
2018-01-04T07:00:18.823Z,0
2018-01-04T07:01:18.554Z,0
2018-01-04T07:02:18.296Z,0
2018-01-04T07:03:18.044Z,0
2018-01-04T07:04:18.538Z,0
2018-01-04T07:05:19.695Z,0
2018-01-04T07:06:17.796Z,0
2018-01-04T07:07:18.282Z,0
2018-01-04T07:08:18.261Z,0
2018-01-04T07:09:18.456Z,0
2018-01-04T07:10:20.191Z,0
2018-01-04T07:11:18.543Z,0
2018-01-04T07:12:18.485Z,0
2018-01-04T07:13:18.229Z,0
2018-01-04T07:14:18.423Z,0
2018-01-04T07:15:19.457Z,0
2018-01-04T07:16:18.213Z,0
2018-01-04T07:17:18.490Z,0
2018-01-04T07:18:18.213Z,0
2018-01-04T07:19:18.700Z,0
2018-01-04T07:20:20.246Z,0
2018-01-04T07:21:18.171Z,0
2018-01-04T07:22:18.175Z,0
2018-01-04T07:23:17.959Z,0
2018-01-04T07:24:18.723Z,0
2018-01-04T07:25:19.751Z,0
2018-01-04T07:26:18.420Z,0
2018-01-04T07:27:18.133Z,0
2018-01-04T07:28:17.630Z,0
2018-01-04T07:29:20.531Z,0
2018-01-04T07:30:19.638Z,0
2018-01-04T07:31:18.122Z,0
2018-01-04T07:32:18.124Z,5
2018-01-04T07:33:18.117Z,5
2018-01-04T07:34:18.093Z,0
2018-01-04T07:35:19.346Z,0
2018-01-04T07:36:17.831Z,0
2018-01-04T07:37:18.330Z,5
2018-01-04T07:38:17.316Z,5
2018-01-04T07:39:17.811Z,5
2018-01-04T07:40:19.231Z,5
2018-01-04T07:41:18.054Z,5
2018-01-04T07:42:18.061Z,5
2018-01-04T07:43:17.789Z,5
2018-01-04T07:44:17.531Z,5
2018-01-04T07:45:19.323Z,5
2018-01-04T07:46:18.031Z,10
2018-01-04T07:47:18.013Z,10
2018-01-04T07:48:17.507Z,10
2018-01-04T07:49:18.020Z,10
2018-01-04T07:50:18.982Z,10
2018-01-04T07:51:18.010Z,15
2018-01-04T07:52:18.246Z,15
2018-01-04T07:53:17.724Z,15
2018-01-04T07:54:18.291Z,15
2018-01-04T07:55:19.636Z,15
2018-01-04T07:56:18.221Z,15
2018-01-04T07:57:17.970Z,15
2018-01-04T07:58:17.450Z,20
2018-01-04T07:59:18.192Z,20
2018-01-04T08:00:18.875Z,20
2018-01-04T08:01:17.677Z,20
2018-01-04T08:02:18.183Z,20
2018-01-04T08:03:17.921Z,20
2018-01-04T08:04:17.932Z,20
2018-01-04T08:05:18.365Z,15
2018-01-04T08:06:17.910Z,15
2018-01-04T08:07:17.638Z,15
2018-01-04T08:08:18.139Z,15
2018-01-04T08:09:17.880Z,15
2018-01-04T08:10:19.703Z,15
2018-01-04T08:11:17.868Z,20
2018-01-04T08:12:17.882Z,20
2018-01-04T08:13:17.601Z,20
2018-01-04T08:14:17.596Z,20
2018-01-04T08:15:19.353Z,20
2018-01-04T08:16:18.092Z,25
2018-01-04T08:17:17.321Z,25
2018-01-04T08:18:17.319Z,25
2018-01-04T08:19:17.828Z,30
2018-01-04T08:20:19.546Z,30
2018-01-04T08:21:17.806Z,30
2018-01-04T08:22:17.799Z,30
2018-01-04T08:23:17.800Z,25
2018-01-04T08:24:18.049Z,25
2018-01-04T08:25:19.937Z,25
2018-01-04T08:26:17.526Z,20
2018-01-04T08:27:17.786Z,25
2018-01-04T08:28:17.760Z,25
2018-01-04T08:29:18.009Z,25
2018-01-04T08:30:19.668Z,25
2018-01-04T08:31:17.502Z,25
2018-01-04T08:32:17.739Z,25
2018-01-04T08:33:17.740Z,30
2018-01-04T08:34:17.994Z,30
2018-01-04T08:35:18.945Z,30
2018-01-04T08:36:49.364Z,30
2018-01-04T08:37:17.967Z,30
2018-01-04T08:38:17.706Z,30
2018-01-04T08:39:17.456Z,30
2018-01-04T08:40:19.968Z,30
2018-01-04T08:41:17.433Z,30
2018-01-04T08:42:17.181Z,30
2018-01-04T08:43:17.429Z,30
2018-01-04T08:44:17.919Z,30
2018-01-04T08:45:19.539Z,30
2018-01-04T08:46:17.651Z,35
2018-01-04T08:47:17.668Z,35
2018-01-04T08:48:17.695Z,35
2018-01-04T08:49:17.638Z,35
2018-01-04T08:50:18.997Z,35
2018-01-04T08:51:17.419Z,30
2018-01-04T08:52:17.631Z,30
2018-01-04T08:53:17.109Z,30
2018-01-04T08:54:17.361Z,30
2018-01-04T08:55:18.875Z,30
2018-01-04T08:56:17.604Z,30
2018-01-04T08:57:17.595Z,30
2018-01-04T08:58:17.342Z,30
2018-01-04T08:59:17.637Z,30
2018-01-04T09:00:18.670Z,30
2018-01-04T09:01:17.579Z,30
2018-01-04T09:02:17.600Z,30
2018-01-04T09:03:17.083Z,30
2018-01-04T09:04:17.113Z,30
2018-01-04T09:05:18.112Z,30
2018-01-04T09:06:17.556Z,30
2018-01-04T09:07:17.539Z,30
2018-01-04T09:08:17.284Z,30
2018-01-04T09:09:17.287Z,30
2018-01-04T09:10:18.250Z,30
2018-01-04T09:11:17.766Z,35
2018-01-04T09:12:17.499Z,30
2018-01-04T09:13:17.501Z,30
2018-01-04T09:14:17.492Z,30
2018-01-04T09:15:19.360Z,30
2018-01-04T09:16:17.233Z,25
2018-01-04T09:17:17.480Z,25
2018-01-04T09:18:17.478Z,25
2018-01-04T09:19:16.960Z,25
2018-01-04T09:20:19.151Z,25
2018-01-04T09:21:17.201Z,30
2018-01-04T09:22:17.704Z,30
2018-01-04T09:23:17.450Z,30
2018-01-04T09:24:17.441Z,30
2018-01-04T09:25:19.174Z,30
2018-01-04T09:26:17.422Z,30
2018-01-04T09:27:16.911Z,30
2018-01-04T09:28:17.419Z,30
2018-01-04T09:29:17.665Z,30
2018-01-04T09:30:19.248Z,30
2018-01-04T09:31:17.396Z,30
2018-01-04T09:32:17.391Z,30
2018-01-04T09:33:17.146Z,30
2018-01-04T09:34:17.642Z,25
2018-01-04T09:35:19.668Z,25
2018-01-04T09:36:17.383Z,25
2018-01-04T09:37:17.617Z,25
2018-01-04T09:38:17.100Z,25
2018-01-04T09:39:17.357Z,25
2018-01-04T09:40:18.394Z,25
2018-01-04T09:41:17.337Z,25
2018-01-04T09:42:17.096Z,25
2018-01-04T09:43:17.604Z,25
2018-01-04T09:44:17.325Z,25
2018-01-04T09:45:18.612Z,25
2018-01-04T09:46:17.314Z,25
2018-01-04T09:47:17.300Z,25
2018-01-04T09:48:17.553Z,25
2018-01-04T09:49:17.607Z,30
2018-01-04T09:50:18.877Z,30
2018-01-04T09:51:17.530Z,30
2018-01-04T09:52:17.022Z,30
2018-01-04T09:53:17.023Z,30
2018-01-04T09:54:16.748Z,35
2018-01-04T09:55:18.942Z,35
2018-01-04T09:56:17.519Z,35
2018-01-04T09:57:17.252Z,35
2018-01-04T09:58:17.504Z,35
2018-01-04T09:59:17.508Z,35
2018-01-04T10:00:18.899Z,35
2018-01-04T10:01:17.221Z,40
2018-01-04T10:02:17.497Z,40
2018-01-04T10:03:17.222Z,40
2018-01-04T10:04:16.959Z,40
2018-01-04T10:05:18.296Z,45
2018-01-04T10:06:17.201Z,45
2018-01-04T10:07:17.447Z,45
2018-01-04T10:08:17.442Z,50
2018-01-04T10:09:17.449Z,50
2018-01-04T10:10:18.476Z,50
2018-01-04T10:11:16.913Z,50
2018-01-04T10:12:17.422Z,50
2018-01-04T10:13:17.420Z,50
2018-01-04T10:14:16.901Z,50
2018-01-04T10:15:18.658Z,50
2018-01-04T10:16:16.899Z,50
2018-01-04T10:17:17.404Z,50
2018-01-04T10:18:17.131Z,50
2018-01-04T10:19:17.403Z,50
2018-01-04T10:20:18.890Z,50
2018-01-04T10:21:17.111Z,50
2018-01-04T10:52:40.357Z,45
2018-01-04T10:53:40.591Z,50
2018-01-04T10:54:40.334Z,50
2018-01-04T10:55:40.431Z,55
2018-01-04T10:56:40.831Z,55
2018-01-04T10:57:40.538Z,55
2018-01-04T10:58:40.528Z,55
2018-01-04T10:59:40.523Z,55
2018-01-04T11:00:40.546Z,55
2018-01-04T11:01:40.266Z,55
2018-01-04T11:02:40.496Z,50
2018-01-04T11:03:40.261Z,50
2018-01-04T11:04:40.493Z,50
2018-01-04T11:05:40.743Z,50
2018-01-04T11:06:40.234Z,55
2018-01-04T11:07:41.964Z,60
2018-01-04T11:08:40.451Z,55
2018-01-04T11:09:40.460Z,60
2018-01-04T11:10:40.443Z,60
2018-01-04T11:11:40.268Z,60
2018-01-04T11:12:40.426Z,55
2018-01-04T11:13:40.695Z,55
2018-01-04T11:14:39.940Z,55
2018-01-04T11:15:39.911Z,60
2018-01-04T11:16:40.420Z,55
2018-01-04T11:17:40.671Z,55
2018-01-04T11:18:40.140Z,60
2018-01-04T11:19:40.160Z,65
2018-01-04T11:20:40.644Z,65
2018-01-04T11:21:40.638Z,65
2018-01-04T11:22:40.398Z,65
2018-01-04T11:23:40.365Z,65
2018-01-04T11:24:40.371Z,65
2018-01-04T11:25:40.601Z,60
2018-01-04T11:26:40.611Z,55
2018-01-04T11:27:40.594Z,55
2018-01-04T11:28:40.112Z,55
2018-01-04T11:29:40.351Z,50
2018-01-04T11:30:40.081Z,50
2018-01-04T11:31:40.581Z,50
2018-01-04T11:32:40.063Z,45
2018-01-04T11:33:40.069Z,45
2018-01-04T11:34:40.326Z,45
2018-01-04T11:35:40.552Z,40
2018-01-04T11:36:40.306Z,40
2018-01-04T11:37:42.437Z,35
2018-01-04T11:38:40.603Z,35
2018-01-04T11:39:40.041Z,35
2018-01-04T11:40:40.033Z,35
2018-01-04T11:41:40.051Z,40
2018-01-04T11:42:40.598Z,40
2018-01-04T11:43:40.011Z,45
2018-01-04T11:44:40.254Z,45
2018-01-04T11:45:40.015Z,50
2018-01-04T11:46:40.260Z,45
2018-01-04T11:47:40.008Z,45
2018-01-04T11:48:40.015Z,40
2018-01-04T11:49:39.984Z,35
2018-01-04T11:50:40.243Z,35
2018-01-04T11:51:40.782Z,35
2018-01-04T11:52:40.479Z,35
2018-01-04T11:53:40.458Z,35
2018-01-04T11:54:40.456Z,40
2018-01-04T11:55:40.484Z,40
2018-01-04T11:56:39.964Z,40
2018-01-04T11:57:39.952Z,45
2018-01-04T11:58:40.199Z,45
2018-01-04T11:59:39.923Z,50
2018-01-04T12:00:40.455Z,50
2018-01-04T12:01:40.289Z,50
2018-01-04T12:02:40.178Z,50
2018-01-04T12:03:40.087Z,50
2018-01-04T12:04:39.891Z,45
2018-01-04T12:05:40.193Z,45
2018-01-04T12:06:40.145Z,45
2018-01-04T12:07:39.920Z,45
2018-01-04T12:08:40.509Z,45
2018-01-04T12:09:40.141Z,50
2018-01-04T12:10:39.884Z,50
2018-01-04T12:11:39.614Z,50
2018-01-04T12:12:39.882Z,50
2018-01-04T12:13:39.852Z,50
2018-01-04T12:14:39.870Z,50
2018-01-04T12:15:39.861Z,45
2018-01-04T12:16:40.096Z,45
2018-01-04T12:17:40.178Z,45
2018-01-04T12:18:40.084Z,40
2018-01-04T12:19:40.088Z,40
2018-01-04T12:20:40.336Z,40
2018-01-04T12:21:39.830Z,40
2018-01-04T12:22:39.824Z,40
2018-01-04T12:23:39.829Z,35
2018-01-04T12:24:39.799Z,30
2018-01-04T12:25:39.827Z,30
2018-01-04T12:26:40.310Z,30
2018-01-04T12:27:40.310Z,30
2018-01-04T12:28:39.841Z,30
2018-01-04T12:29:40.283Z,30
2018-01-04T12:30:39.785Z,30
2018-01-04T12:31:40.266Z,35
2018-01-04T12:32:40.088Z,35
2018-01-04T12:33:40.264Z,30
2018-01-04T12:34:39.747Z,30
2018-01-04T12:35:40.251Z,30
2018-01-04T12:36:39.989Z,30
2018-01-04T12:37:42.084Z,35
2018-01-04T12:38:40.240Z,35
2018-01-04T12:39:40.241Z,40
2018-01-04T12:40:40.227Z,40
2018-01-04T12:41:40.223Z,40
2018-01-04T12:42:40.009Z,30
2018-01-04T12:43:39.719Z,30
2018-01-04T12:44:40.201Z,35
2018-01-04T12:45:39.960Z,35
2018-01-04T12:46:39.993Z,35
2018-01-04T12:47:39.954Z,35
2018-01-04T12:48:39.977Z,40
2018-01-04T12:49:40.173Z,40
2018-01-04T12:50:39.677Z,35
2018-01-04T12:51:39.905Z,40
2018-01-04T12:52:39.664Z,40
2018-01-04T12:53:40.147Z,40
2018-01-04T12:54:39.897Z,35
2018-01-04T12:55:40.208Z,35
2018-01-04T12:56:39.632Z,35
2018-01-04T12:57:40.137Z,35
2018-01-04T12:58:40.139Z,35
2018-01-04T12:59:39.866Z,40
2018-01-04T13:00:39.608Z,45
2018-01-04T13:01:40.122Z,45
2018-01-04T13:02:39.847Z,35
2018-01-04T13:03:39.593Z,35
2018-01-04T13:04:40.133Z,35
2018-01-04T13:05:39.847Z,35
2018-01-04T13:06:39.591Z,30
2018-01-04T13:07:40.124Z,30
2018-01-04T13:08:40.077Z,30
2018-01-04T13:09:39.571Z,25
2018-01-04T13:10:39.563Z,30
2018-01-04T13:11:39.816Z,30
2018-01-04T13:12:40.091Z,30
2018-01-04T13:13:40.052Z,25
2018-01-04T13:14:39.838Z,30
2018-01-04T13:15:40.036Z,35
2018-01-04T13:16:40.057Z,30
2018-01-04T13:17:39.529Z,30
2018-01-04T13:18:39.787Z,25
2018-01-04T13:19:39.780Z,20
2018-01-04T13:20:39.521Z,20
2018-01-04T13:21:39.509Z,20
2018-01-04T13:22:39.999Z,20
2018-01-04T13:23:40.013Z,25
2018-01-04T13:24:39.511Z,25
2018-01-04T13:25:39.992Z,25
2018-01-04T13:26:39.738Z,25
2018-01-04T13:27:39.986Z,30
2018-01-04T13:28:39.718Z,25
2018-01-04T13:29:39.211Z,25
2018-01-04T13:30:39.712Z,25
2018-01-04T13:31:39.200Z,25
2018-01-04T13:32:39.692Z,25
2018-01-04T13:33:39.692Z,25
2018-01-04T13:34:39.450Z,30
2018-01-04T13:35:39.685Z,25
2018-01-04T13:36:39.934Z,20
2018-01-04T13:37:39.638Z,20
2018-01-04T13:38:39.681Z,20
2018-01-04T13:39:39.928Z,20
2018-01-04T13:40:39.913Z,20
2018-01-04T13:41:39.646Z,15
2018-01-04T13:42:39.901Z,15
2018-01-04T13:43:39.656Z,20
2018-01-04T13:44:39.747Z,20
2018-01-04T13:45:39.892Z,20
2018-01-04T13:46:39.636Z,20
2018-01-04T13:47:39.873Z,20
2018-01-04T13:48:39.369Z,20
2018-01-04T13:49:39.413Z,20
2018-01-04T13:50:39.861Z,20
2018-01-04T13:51:39.886Z,20
2018-01-04T13:52:39.862Z,20
2018-01-04T13:53:39.338Z,20
2018-01-04T13:54:39.600Z,20
2018-01-04T13:55:39.598Z,20
2018-01-04T13:56:39.918Z,20
2018-01-04T13:57:39.830Z,20
2018-01-04T13:58:39.577Z,20
2018-01-04T13:59:39.311Z,25
2018-01-04T14:00:39.559Z,25
2018-01-04T14:01:39.311Z,25
2018-01-04T14:02:39.565Z,20
2018-01-04T14:03:39.849Z,20
2018-01-04T14:04:39.289Z,20
2018-01-04T14:05:39.279Z,20
2018-01-04T14:06:39.278Z,20
2018-01-04T14:07:39.021Z,20
2018-01-04T14:08:39.511Z,20
2018-01-04T14:09:38.821Z,20
2018-01-04T14:10:39.254Z,20
2018-01-04T14:11:39.762Z,15
2018-01-04T14:12:39.248Z,15
2018-01-04T14:13:39.577Z,15
2018-01-04T14:14:39.569Z,15
2018-01-04T14:15:39.632Z,15
2018-01-04T14:16:39.484Z,15
2018-01-04T14:17:39.479Z,15
2018-01-04T14:18:39.729Z,15
2018-01-04T14:19:39.460Z,10
2018-01-04T14:20:38.959Z,10
2018-01-04T14:21:39.464Z,15
2018-01-04T14:22:39.703Z,10
2018-01-04T14:23:39.541Z,10
2018-01-04T14:24:39.688Z,10
2018-01-04T14:25:39.686Z,15
2018-01-04T14:26:39.427Z,10
2018-01-04T14:27:39.419Z,15
2018-01-04T14:28:39.416Z,10
2018-01-04T14:29:39.265Z,10
2018-01-04T14:30:38.901Z,10
2018-01-04T14:31:39.661Z,10
2018-01-04T14:32:39.392Z,10
2018-01-04T14:33:39.401Z,10
2018-01-04T14:34:39.378Z,10
2018-01-04T14:35:38.617Z,10
2018-01-04T14:36:39.157Z,10
2018-01-04T14:37:39.115Z,10
2018-01-04T14:38:39.916Z,10
2018-01-04T14:39:39.283Z,10
2018-01-04T14:40:39.606Z,10
2018-01-04T14:41:39.104Z,10
2018-01-04T14:42:39.610Z,10
2018-01-04T14:43:39.348Z,10
2018-01-04T14:44:39.091Z,10
2018-01-04T14:45:39.099Z,10
2018-01-04T14:46:39.090Z,10
2018-01-04T14:47:39.583Z,10
2018-01-04T14:48:39.071Z,10
2018-01-04T14:49:39.329Z,10
2018-01-04T14:50:39.162Z,10
2018-01-04T14:51:39.570Z,10
2018-01-04T14:52:39.308Z,10
2018-01-04T14:53:39.076Z,5
2018-01-04T14:54:39.056Z,5
2018-01-04T14:55:39.058Z,5
2018-01-04T14:56:39.536Z,5
2018-01-04T14:57:39.290Z,5
2018-01-04T14:58:39.543Z,5
2018-01-04T14:59:39.041Z,5
2018-01-04T15:00:39.277Z,5
2018-01-04T15:01:39.278Z,5
2018-01-04T15:02:39.274Z,5